Time;durP1;ratioP1;P1;durP2;ratioP2;P2;SDS_P1;SDS_P2;PMS_P1;PMS_P2;Temp;Humidity;BMP_temperature;BMP_pressure;BME280_temperature;BME280_humidity;BME280_pressure;Samples;Min_cycle;Max_cycle;Signal;HPM_P1;HPM_P2
2022/11/28 00:00:04;;;;;;;;;;;10.00;99.90;;;;;;5055414;28;19908;-71
2022/11/28 00:02:29;;;;;;;;;;;10.00;99.90;;;;;;5055996;28;20259;-73
2022/11/28 00:04:55;;;;;;;;;;;9.90;99.90;;;;;;5055572;28;19996;-73
2022/11/28 00:07:20;;;;;;;;;;;9.90;99.90;;;;;;5055621;28;19966;-73
2022/11/28 00:09:46;;;;;;;;;;;9.90;99.90;;;;;;5055321;28;19916;-73
2022/11/28 00:12:11;;;;;;;;;;;9.90;99.90;;;;;;5055495;28;19916;-72
2022/11/28 00:14:37;;;;;;;;;;;10.00;99.90;;;;;;5055052;28;19909;-73
2022/11/28 00:17:03;;;;;;;;;;;10.00;99.90;;;;;;5055032;28;20272;-75
2022/11/28 00:19:28;;;;;;;;;;;9.90;99.90;;;;;;5055145;28;19995;-72
2022/11/28 00:21:54;;;;;;;;;;;9.90;99.90;;;;;;5055265;28;19931;-74
2022/11/28 00:24:19;;;;;;;;;;;9.90;99.90;;;;;;5036994;28;19909;-74
2022/11/28 00:26:45;;;;;;;;;;;10.00;99.90;;;;;;5054915;28;19909;-73
2022/11/28 00:29:11;;;;;;;;;;;10.00;99.90;;;;;;5055155;28;20385;-72
2022/11/28 00:31:41;;;;;;;;;;;10.00;99.90;;;;;;5054933;28;19996;-75
2022/11/28 00:34:10;;;;;;;;;;;10.00;99.90;;;;;;5055014;28;19916;-72
2022/11/28 00:36:36;;;;;;;;;;;10.00;99.90;;;;;;5054749;28;19909;-74
2022/11/28 00:39:02;;;;;;;;;;;10.00;99.90;;;;;;5054659;28;19916;-73
2022/11/28 00:41:29;;;;;;;;;;;9.90;99.90;;;;;;5054919;28;19909;-73
2022/11/28 00:43:55;;;;;;;;;;;9.80;99.90;;;;;;5054510;28;20289;-73
2022/11/28 00:46:21;;;;;;;;;;;9.90;99.90;;;;;;5054541;28;20397;-75
2022/11/28 00:48:47;;;;;;;;;;;9.90;99.90;;;;;;5054786;28;19916;-72
2022/11/28 00:51:17;;;;;;;;;;;9.90;99.90;;;;;;5054665;28;19909;-74
2022/11/28 00:53:44;;;;;;;;;;;9.90;99.90;;;;;;5054276;28;20391;-74
2022/11/28 00:56:10;;;;;;;;;;;9.90;99.90;;;;;;5054671;28;19954;-72
2022/11/28 00:58:36;;;;;;;;;;;9.90;99.90;;;;;;5054283;28;19913;-72
2022/11/28 01:01:09;;;;;;;;;;;9.80;99.90;;;;;;5053835;28;19916;-72
2022/11/28 01:03:35;;;;;;;;;;;9.80;99.90;;;;;;5054227;28;19908;-74
2022/11/28 01:06:00;;;;;;;;;;;9.80;99.90;;;;;;5054472;28;19962;-73
2022/11/28 01:08:26;;;;;;;;;;;9.80;99.90;;;;;;5036306;28;20367;-73
2022/11/28 01:10:51;;;;;;;;;;;9.70;99.90;;;;;;5054099;28;19909;-73
2022/11/28 01:13:17;;;;;;;;;;;9.60;99.90;;;;;;5054016;28;19909;-71
2022/11/28 01:15:42;;;;;;;;;;;9.60;99.90;;;;;;5054202;28;19935;-74
2022/11/28 01:18:08;;;;;;;;;;;9.50;99.90;;;;;;5053863;28;19919;-74
2022/11/28 01:20:34;;;;;;;;;;;9.50;99.90;;;;;;5053992;28;19916;-71
2022/11/28 01:23:00;;;;;;;;;;;9.50;99.90;;;;;;5054244;28;19951;-73
2022/11/28 01:25:25;;;;;;;;;;;9.50;99.90;;;;;;5053837;28;19909;-74
2022/11/28 01:27:50;;;;;;;;;;;9.50;99.90;;;;;;5035917;28;19962;-72
2022/11/28 01:30:16;;;;;;;;;;;9.50;99.90;;;;;;5054133;28;19962;-72
2022/11/28 01:32:42;;;;;;;;;;;9.50;99.90;;;;;;5053779;28;19958;-73
2022/11/28 01:35:07;;;;;;;;;;;9.50;99.90;;;;;;5053794;28;19998;-74
2022/11/28 01:37:33;;;;;;;;;;;9.40;99.90;;;;;;5053650;28;20429;-74
2022/11/28 01:39:58;;;;;;;;;;;9.50;99.90;;;;;;5054000;28;19909;-73
2022/11/28 01:42:24;;;;;;;;;;;9.40;99.90;;;;;;5053637;28;20287;-74
2022/11/28 01:44:52;;;;;;;;;;;9.40;99.90;;;;;;5053525;28;19999;-75
2022/11/28 01:47:20;;;;;;;;;;;9.40;99.90;;;;;;5035700;28;19916;-72
2022/11/28 01:49:46;;;;;;;;;;;9.40;99.90;;;;;;5053997;28;19909;-75
2022/11/28 01:52:14;;;;;;;;;;;9.40;99.90;;;;;;5053348;28;19982;-74
2022/11/28 01:54:41;;;;;;;;;;;9.40;99.90;;;;;;5054150;28;20274;-73
2022/11/28 01:57:17;;;;;;;;;;;9.30;99.90;;;;;;5053561;28;19913;-74
2022/11/28 01:59:46;;;;;;;;;;;9.40;99.90;;;;;;5053820;28;19908;-74
2022/11/28 02:02:14;;;;;;;;;;;9.40;99.90;;;;;;5035690;28;19962;-72
2022/11/28 02:04:40;;;;;;;;;;;9.20;99.90;;;;;;5053576;28;19959;-75
2022/11/28 02:07:06;;;;;;;;;;;9.30;99.90;;;;;;5053466;28;19932;-73
2022/11/28 02:09:31;;;;;;;;;;;9.10;99.90;;;;;;5053419;28;20370;-74
2022/11/28 02:12:09;;;;;;;;;;;9.10;99.90;;;;;;5035553;28;19916;-74
2022/11/28 02:14:43;;;;;;;;;;;9.00;99.90;;;;;;5057388;28;19915;-75
2022/11/28 02:17:27;;;;;;;;;;;9.00;99.90;;;;;;5057618;28;19917;-74
2022/11/28 02:20:11;;;;;;;;;;;9.00;99.90;;;;;;5057269;28;20411;-74
2022/11/28 02:22:55;;;;;;;;;;;8.90;99.90;;;;;;5057298;28;19908;-72
2022/11/28 02:25:39;;;;;;;;;;;8.80;99.90;;;;;;5057243;28;19956;-73
2022/11/28 02:28:07;;;;;;;;;;;8.70;99.90;;;;;;5057245;28;19959;-72
2022/11/28 02:30:57;;;;;;;;;;;8.70;99.90;;;;;;5057090;28;19909;-72
2022/11/28 02:33:22;;;;;;;;;;;8.80;99.90;;;;;;5057796;28;19916;-73
2022/11/28 02:35:58;;;;;;;;;;;8.70;99.90;;;;;;5057113;28;19908;-73
2022/11/28 02:38:39;;;;;;;;;;;8.70;99.90;;;;;;5058137;28;20034;-72
2022/11/28 02:41:31;;;;;;;;;;;8.70;99.90;;;;;;5057018;28;19909;-72
2022/11/28 02:44:02;;;;;;;;;;;8.60;99.90;;;;;;5052749;28;20344;-74
2022/11/28 02:46:31;;;;;;;;;;;8.60;99.90;;;;;;5056839;28;19909;-73
2022/11/28 02:49:26;;;;;;;;;;;8.60;99.90;;;;;;5056752;28;20380;-74
2022/11/28 02:51:55;;;;;;;;;;;8.70;99.90;;;;;;5039758;28;19913;-72
2022/11/28 02:54:22;;;;;;;;;;;8.60;99.90;;;;;;5057078;28;19912;-74
2022/11/28 02:56:52;;;;;;;;;;;8.60;99.90;;;;;;5056558;28;19916;-73
2022/11/28 02:59:26;;;;;;;;;;;8.60;99.90;;;;;;5056621;28;19909;-73
2022/11/28 03:01:51;;;;;;;;;;;8.60;99.90;;;;;;5056797;28;19919;-75
2022/11/28 03:04:28;;;;;;;;;;;8.60;99.90;;;;;;5055675;28;20206;-74
2022/11/28 03:07:12;;;;;;;;;;;8.70;99.90;;;;;;5056432;28;20000;-71
2022/11/28 03:09:47;;;;;;;;;;;8.70;99.90;;;;;;5056556;28;19909;-73
2022/11/28 03:12:13;;;;;;;;;;;8.60;99.90;;;;;;5062304;28;19909;-73
2022/11/28 03:14:49;;;;;;;;;;;8.70;99.90;;;;;;5067034;28;20470;-72
2022/11/28 03:17:38;;;;;;;;;;;8.70;99.90;;;;;;5067386;28;19936;-73
2022/11/28 03:20:23;;;;;;;;;;;8.70;99.90;;;;;;5046158;28;19916;-72
2022/11/28 03:22:59;;;;;;;;;;;8.70;99.90;;;;;;5056700;28;19963;-72
2022/11/28 03:25:25;;;;;;;;;;;8.60;99.90;;;;;;5055353;28;20275;-73
2022/11/28 03:27:52;;;;;;;;;;;8.50;99.90;;;;;;5038205;28;19971;-73
2022/11/28 03:30:18;;;;;;;;;;;8.50;99.90;;;;;;5056349;28;19919;-72
2022/11/28 03:32:46;;;;;;;;;;;8.60;99.90;;;;;;5056321;28;19978;-72
2022/11/28 03:35:17;;;;;;;;;;;8.50;99.90;;;;;;5055837;28;19958;-75
2022/11/28 03:38:02;;;;;;;;;;;8.60;99.90;;;;;;5055889;28;19913;-72
2022/11/28 03:40:30;;;;;;;;;;;8.50;99.90;;;;;;5055195;28;19963;-74
2022/11/28 03:42:57;;;;;;;;;;;8.50;99.90;;;;;;5055925;28;20355;-75
2022/11/28 03:45:25;;;;;;;;;;;8.40;99.90;;;;;;5055923;28;19915;-72
2022/11/28 03:48:01;;;;;;;;;;;8.50;99.90;;;;;;5055692;28;19916;-73
2022/11/28 03:50:35;;;;;;;;;;;8.50;99.90;;;;;;5056088;28;20306;-72
2022/11/28 03:53:03;;;;;;;;;;;8.50;99.90;;;;;;5055503;28;19927;-74
2022/11/28 03:55:34;;;;;;;;;;;8.60;99.90;;;;;;5055604;28;19956;-73
2022/11/28 03:58:08;;;;;;;;;;;8.50;99.90;;;;;;5037588;28;19916;-74
2022/11/28 04:00:36;;;;;;;;;;;8.50;99.90;;;;;;5055429;28;19909;-74
2022/11/28 04:03:07;;;;;;;;;;;8.50;99.90;;;;;;5055142;28;19955;-73
2022/11/28 04:05:33;;;;;;;;;;;8.60;99.90;;;;;;5055697;28;19908;-72
2022/11/28 04:08:19;;;;;;;;;;;8.60;99.90;;;;;;5055254;28;19909;-72
2022/11/28 04:10:51;;;;;;;;;;;8.50;99.90;;;;;;5040987;28;19909;-73
2022/11/28 04:13:26;;;;;;;;;;;8.50;99.90;;;;;;5055455;28;20367;-73
2022/11/28 04:15:58;;;;;;;;;;;8.40;99.90;;;;;;5055195;28;19909;-71
2022/11/28 04:18:30;;;;;;;;;;;8.40;99.90;;;;;;5055609;28;19920;-73
2022/11/28 04:20:57;;;;;;;;;;;8.40;99.90;;;;;;5055103;28;19916;-74
2022/11/28 04:23:23;;;;;;;;;;;8.50;99.90;;;;;;5055100;28;19999;-73
2022/11/28 04:25:51;;;;;;;;;;;8.40;99.90;;;;;;5055195;28;19943;-74
2022/11/28 04:28:19;;;;;;;;;;;8.40;99.90;;;;;;5054688;28;20004;-73
2022/11/28 04:30:46;;;;;;;;;;;8.40;99.90;;;;;;5054876;28;19909;-72
2022/11/28 04:33:12;;;;;;;;;;;8.50;99.90;;;;;;5054912;28;19912;-74
2022/11/28 04:35:40;;;;;;;;;;;8.50;99.90;;;;;;5054145;28;19909;-74
2022/11/28 04:38:08;;;;;;;;;;;8.50;99.90;;;;;;5054883;28;19959;-75
2022/11/28 04:40:36;;;;;;;;;;;8.40;99.90;;;;;;5054629;28;19959;-72
2022/11/28 04:43:07;;;;;;;;;;;8.30;99.90;;;;;;5054736;28;19913;-73
2022/11/28 04:45:37;;;;;;;;;;;8.40;99.90;;;;;;5055138;28;19958;-72
2022/11/28 04:48:03;;;;;;;;;;;8.40;99.90;;;;;;5054453;28;20402;-72
2022/11/28 04:50:49;;;;;;;;;;;8.30;99.90;;;;;;5055888;28;20001;-74
2022/11/28 04:53:19;;;;;;;;;;;8.40;99.90;;;;;;5044920;28;19928;-75
2022/11/28 04:55:46;;;;;;;;;;;8.40;99.90;;;;;;5054697;28;19940;-72
2022/11/28 04:58:18;;;;;;;;;;;8.40;99.90;;;;;;5054548;28;19913;-72
2022/11/28 05:00:45;;;;;;;;;;;8.40;99.90;;;;;;5054494;28;19987;-72
2022/11/28 05:03:11;;;;;;;;;;;8.40;99.90;;;;;;5054547;28;19915;-75
2022/11/28 05:05:44;;;;;;;;;;;8.40;99.90;;;;;;5054194;28;19908;-75
2022/11/28 05:08:10;;;;;;;;;;;8.40;99.90;;;;;;5054507;28;19908;-74
2022/11/28 05:10:36;;;;;;;;;;;8.50;99.90;;;;;;5054143;28;19948;-74
2022/11/28 05:13:01;;;;;;;;;;;8.60;99.90;;;;;;5054345;28;19913;-74
2022/11/28 05:15:27;;;;;;;;;;;8.70;99.90;;;;;;5054302;28;20004;-72
2022/11/28 05:17:52;;;;;;;;;;;8.80;99.90;;;;;;5053936;28;20382;-74
2022/11/28 05:20:18;;;;;;;;;;;8.90;99.90;;;;;;5054295;28;19909;-74
2022/11/28 05:22:43;;;;;;;;;;;9.00;99.90;;;;;;5054204;28;19975;-72
2022/11/28 05:25:09;;;;;;;;;;;9.00;99.90;;;;;;5053899;28;19955;-72
2022/11/28 05:27:35;;;;;;;;;;;9.10;99.90;;;;;;5054155;28;19913;-72
2022/11/28 05:30:00;;;;;;;;;;;9.10;99.90;;;;;;5054205;28;19954;-75
2022/11/28 05:32:30;;;;;;;;;;;9.10;99.90;;;;;;5054133;28;19909;-75
2022/11/28 05:34:55;;;;;;;;;;;9.20;99.90;;;;;;5053789;28;19909;-75
2022/11/28 05:37:21;;;;;;;;;;;9.10;99.90;;;;;;5053686;28;20271;-72
2022/11/28 05:39:46;;;;;;;;;;;9.10;99.90;;;;;;5053991;28;19916;-73
2022/11/28 05:42:12;;;;;;;;;;;9.10;99.90;;;;;;5053802;28;19909;-72
2022/11/28 05:44:38;;;;;;;;;;;9.10;99.90;;;;;;5053728;28;19912;-73
2022/11/28 05:47:03;;;;;;;;;;;9.00;99.90;;;;;;5053934;28;19909;-74
2022/11/28 05:49:29;;;;;;;;;;;9.00;99.90;;;;;;5053681;28;19944;-72
2022/11/28 05:51:54;;;;;;;;;;;9.00;99.90;;;;;;5053622;28;19916;-74
2022/11/28 05:54:20;;;;;;;;;;;9.00;99.90;;;;;;5053884;28;19917;-73
2022/11/28 05:56:45;;;;;;;;;;;9.00;99.90;;;;;;5053456;28;19958;-73
2022/11/28 05:59:11;;;;;;;;;;;9.10;99.90;;;;;;5053908;28;19919;-74
2022/11/28 06:01:37;;;;;;;;;;;9.10;99.90;;;;;;5053466;28;20492;-73
2022/11/28 06:04:03;;;;;;;;;;;9.10;99.90;;;;;;5053514;28;19921;-74
2022/11/28 06:06:29;;;;;;;;;;;9.10;99.90;;;;;;5053772;28;19909;-72
2022/11/28 06:08:55;;;;;;;;;;;9.10;99.90;;;;;;5053473;28;20009;-73
2022/11/28 06:11:21;;;;;;;;;;;9.10;99.90;;;;;;5053453;28;19913;-72
2022/11/28 06:13:48;;;;;;;;;;;9.00;99.90;;;;;;5053725;28;19909;-75
2022/11/28 06:16:15;;;;;;;;;;;9.00;99.90;;;;;;5053482;28;19996;-72
2022/11/28 06:18:41;;;;;;;;;;;9.00;99.90;;;;;;5053277;28;19917;-74
2022/11/28 06:21:07;;;;;;;;;;;9.10;99.90;;;;;;5053606;28;19908;-74
2022/11/28 06:23:33;;;;;;;;;;;9.10;99.90;;;;;;5053341;28;20359;-73
2022/11/28 06:26:03;;;;;;;;;;;9.10;99.90;;;;;;5053638;28;19909;-74
2022/11/28 06:28:28;;;;;;;;;;;9.10;99.90;;;;;;5053353;28;19909;-74
2022/11/28 06:30:54;;;;;;;;;;;9.10;99.90;;;;;;5053498;28;20252;-73
2022/11/28 06:33:19;;;;;;;;;;;9.10;99.90;;;;;;5053505;28;19916;-72
2022/11/28 06:35:45;;;;;;;;;;;9.10;99.90;;;;;;5035407;28;19955;-73
2022/11/28 06:38:10;;;;;;;;;;;9.00;99.90;;;;;;5053008;28;20495;-72
2022/11/28 06:40:39;;;;;;;;;;;9.00;99.90;;;;;;5035304;28;19909;-74
2022/11/28 06:43:05;;;;;;;;;;;9.00;99.90;;;;;;5053436;28;20420;-73
2022/11/28 06:45:32;;;;;;;;;;;9.00;99.90;;;;;;5053126;28;19995;-72
2022/11/28 06:47:57;;;;;;;;;;;9.00;99.90;;;;;;5053569;28;19916;-73
2022/11/28 06:50:23;;;;;;;;;;;9.00;99.90;;;;;;5053132;28;19908;-76
2022/11/28 06:52:49;;;;;;;;;;;9.00;99.90;;;;;;5053353;28;19986;-73
2022/11/28 06:55:16;;;;;;;;;;;8.90;99.90;;;;;;5053527;28;19955;-75
2022/11/28 06:57:42;;;;;;;;;;;8.70;99.90;;;;;;5052867;28;19963;-75
2022/11/28 07:00:08;;;;;;;;;;;8.70;99.90;;;;;;5054857;28;19909;-72
2022/11/28 07:02:33;;;;;;;;;;;8.70;99.90;;;;;;5056895;28;20363;-72
2022/11/28 07:04:59;;;;;;;;;;;8.60;99.90;;;;;;5056787;28;19909;-74
2022/11/28 07:07:24;;;;;;;;;;;8.60;99.90;;;;;;5057049;28;19909;-72
2022/11/28 07:09:51;;;;;;;;;;;8.50;99.90;;;;;;5056336;28;19959;-75
2022/11/28 07:12:16;;;;;;;;;;;8.50;99.90;;;;;;5056748;28;20021;-73
2022/11/28 07:14:42;;;;;;;;;;;8.50;99.90;;;;;;5056375;28;19944;-73
2022/11/28 07:17:07;;;;;;;;;;;8.40;99.90;;;;;;5056296;28;19917;-73
2022/11/28 07:19:33;;;;;;;;;;;8.30;99.90;;;;;;5056547;28;19908;-72
2022/11/28 07:21:58;;;;;;;;;;;8.40;99.90;;;;;;5056565;28;19909;-74
2022/11/28 07:24:24;;;;;;;;;;;8.40;99.90;;;;;;5056450;28;19992;-74
2022/11/28 07:26:50;;;;;;;;;;;8.30;99.90;;;;;;5056121;28;20382;-74
2022/11/28 07:29:16;;;;;;;;;;;8.30;99.90;;;;;;5056097;28;19909;-74
2022/11/28 07:31:42;;;;;;;;;;;8.30;99.90;;;;;;5056088;28;19975;-74
2022/11/28 07:34:08;;;;;;;;;;;8.30;99.90;;;;;;5056030;28;20325;-73
2022/11/28 07:36:34;;;;;;;;;;;8.20;99.90;;;;;;5056283;28;19909;-72
2022/11/28 07:39:01;;;;;;;;;;;8.20;99.90;;;;;;5056156;28;20000;-71
2022/11/28 07:41:27;;;;;;;;;;;8.20;99.90;;;;;;5038019;28;20371;-72
2022/11/28 07:43:54;;;;;;;;;;;8.20;99.90;;;;;;5056131;28;19909;-72
2022/11/28 07:46:19;;;;;;;;;;;8.20;99.90;;;;;;5055805;28;20374;-74
2022/11/28 07:48:46;;;;;;;;;;;8.20;99.90;;;;;;5055944;28;19908;-72
2022/11/28 07:51:13;;;;;;;;;;;8.30;99.90;;;;;;5055649;28;20406;-74
2022/11/28 07:53:39;;;;;;;;;;;8.20;99.90;;;;;;5055849;28;20383;-74
2022/11/28 07:56:06;;;;;;;;;;;8.20;99.90;;;;;;5058980;28;20397;-77
2022/11/28 07:58:32;;;;;;;;;;;8.30;99.90;;;;;;5059323;28;20383;-76
2022/11/28 08:00:58;;;;;;;;;;;8.30;99.90;;;;;;5065214;28;19920;-78
2022/11/28 08:03:23;;;;;;;;;;;8.40;99.90;;;;;;5075344;28;19962;-80
2022/11/28 08:05:49;;;;;;;;;;;8.40;99.90;;;;;;5074805;28;19909;-79
2022/11/28 08:08:15;;;;;;;;;;;8.50;99.90;;;;;;5056344;28;20260;-76
2022/11/28 08:10:41;;;;;;;;;;;8.60;99.90;;;;;;5058142;28;20448;-78
2022/11/28 08:13:07;;;;;;;;;;;8.80;99.90;;;;;;5038375;28;19913;-79
2022/11/28 08:15:32;;;;;;;;;;;8.80;99.90;;;;;;5055594;28;19916;-78
2022/11/28 08:17:58;;;;;;;;;;;9.00;99.90;;;;;;5056593;28;19917;-78
2022/11/28 08:20:23;;;;;;;;;;;9.20;99.90;;;;;;5060053;28;19916;-77
2022/11/28 08:22:49;;;;;;;;;;;9.20;99.90;;;;;;5073732;28;19938;-79
2022/11/28 08:25:14;;;;;;;;;;;9.20;99.90;;;;;;5057018;28;19959;-80
2022/11/28 08:27:40;;;;;;;;;;;9.30;99.90;;;;;;5075563;28;19908;-73
2022/11/28 08:30:06;;;;;;;;;;;9.30;99.90;;;;;;5074875;28;19908;-77
2022/11/28 08:32:31;;;;;;;;;;;9.30;99.90;;;;;;5075158;28;20359;-78
2022/11/28 08:34:57;;;;;;;;;;;9.40;99.90;;;;;;5074924;28;19944;-77
2022/11/28 08:37:22;;;;;;;;;;;9.40;99.90;;;;;;5075018;28;20276;-75
2022/11/28 08:39:48;;;;;;;;;;;9.50;99.90;;;;;;5074719;28;19909;-72
2022/11/28 08:42:13;;;;;;;;;;;9.40;99.90;;;;;;5074694;28;19915;-80
2022/11/28 08:44:39;;;;;;;;;;;9.30;99.90;;;;;;5074952;28;19908;-79
2022/11/28 08:47:05;;;;;;;;;;;9.30;99.90;;;;;;5056661;28;19908;-81
2022/11/28 08:49:30;;;;;;;;;;;9.30;99.90;;;;;;5072716;28;19909;-77
2022/11/28 08:51:56;;;;;;;;;;;9.40;99.90;;;;;;5075309;28;19908;-78
2022/11/28 08:54:21;;;;;;;;;;;9.40;99.90;;;;;;5094943;28;19916;-78
2022/11/28 08:56:47;;;;;;;;;;;9.40;99.90;;;;;;5093434;28;19908;-80
2022/11/28 08:59:12;;;;;;;;;;;9.50;99.90;;;;;;5082870;28;19908;-78
2022/11/28 09:01:38;;;;;;;;;;;9.50;99.90;;;;;;5094660;28;19958;-79
2022/11/28 09:04:04;;;;;;;;;;;9.50;99.90;;;;;;5071213;28;19916;-80
2022/11/28 09:06:29;;;;;;;;;;;9.50;99.90;;;;;;5095082;28;20015;-79
2022/11/28 09:08:55;;;;;;;;;;;9.50;99.90;;;;;;5079055;28;19935;-79
2022/11/28 09:11:21;;;;;;;;;;;9.60;99.90;;;;;;5073919;28;20413;-74
2022/11/28 09:13:47;;;;;;;;;;;9.60;99.90;;;;;;5074356;28;20053;-77
2022/11/28 09:16:13;;;;;;;;;;;9.70;99.90;;;;;;5074399;28;19944;-79
2022/11/28 09:18:38;;;;;;;;;;;9.80;99.90;;;;;;5074021;28;20388;-80
2022/11/28 09:21:08;;;;;;;;;;;10.20;99.90;;;;;;5076378;28;19995;-79
2022/11/28 09:23:34;;;;;;;;;;;10.50;99.90;;;;;;5075405;28;19918;-76
2022/11/28 09:25:59;;;;;;;;;;;10.80;99.90;;;;;;5086699;28;20003;-75
2022/11/28 09:28:27;;;;;;;;;;;10.60;99.90;;;;;;5079471;28;19944;-78
2022/11/28 09:31:00;;;;;;;;;;;10.60;99.90;;;;;;5075076;28;20432;-80
2022/11/28 09:33:25;;;;;;;;;;;10.60;99.90;;;;;;5090520;28;19919;-78
2022/11/28 09:35:51;;;;;;;;;;;10.60;99.90;;;;;;5064026;28;19917;-80
2022/11/28 09:38:16;;;;;;;;;;;10.90;99.90;;;;;;5091831;28;19974;-78
2022/11/28 09:40:43;;;;;;;;;;;11.20;99.90;;;;;;5086594;28;19913;-79
2022/11/28 09:43:29;;;;;;;;;;;11.20;99.90;;;;;;5074054;28;19915;-79
2022/11/28 09:45:55;;;;;;;;;;;10.80;99.90;;;;;;5058914;28;19912;-77
2022/11/28 09:48:34;;;;;;;;;;;10.40;99.90;;;;;;5080831;28;19965;-73
2022/11/28 09:51:18;;;;;;;;;;;10.10;99.90;;;;;;5088112;28;19956;-73
2022/11/28 09:53:49;;;;;;;;;;;9.80;99.90;;;;;;5080768;28;19928;-73
2022/11/28 09:56:16;;;;;;;;;;;9.70;99.90;;;;;;5093896;28;19998;-73
2022/11/28 09:58:41;;;;;;;;;;;9.60;99.90;;;;;;5094402;28;19928;-73
2022/11/28 10:01:09;;;;;;;;;;;9.60;99.90;;;;;;5094412;28;20008;-73
2022/11/28 10:03:35;;;;;;;;;;;9.50;99.90;;;;;;5079123;28;19960;-73
2022/11/28 10:06:08;;;;;;;;;;;9.50;99.90;;;;;;5073415;28;19968;-76
2022/11/28 10:08:50;;;;;;;;;;;9.50;99.90;;;;;;5090812;28;20451;-78
2022/11/28 10:11:35;;;;;;;;;;;9.60;99.90;;;;;;5107271;28;19908;-78
2022/11/28 10:14:08;;;;;;;;;;;9.70;99.90;;;;;;5094171;28;19908;-78
2022/11/28 10:16:43;;;;;;;;;;;9.80;99.90;;;;;;5099087;28;20007;-75
2022/11/28 10:19:12;;;;;;;;;;;10.00;99.90;;;;;;5064908;28;20398;-74
2022/11/28 10:21:39;;;;;;;;;;;10.10;99.90;;;;;;5073758;28;20374;-75
2022/11/28 10:24:28;;;;;;;;;;;10.20;99.90;;;;;;5073087;28;19919;-76
2022/11/28 10:26:57;;;;;;;;;;;10.30;99.90;;;;;;5077478;28;19913;-75
2022/11/28 10:29:28;;;;;;;;;;;10.40;99.90;;;;;;5075473;28;20020;-76
2022/11/28 10:31:55;;;;;;;;;;;10.30;99.90;;;;;;5093791;28;19999;-76
2022/11/28 10:34:29;;;;;;;;;;;10.20;99.90;;;;;;5096043;28;20421;-77
2022/11/28 10:37:05;;;;;;;;;;;10.10;99.90;;;;;;5079278;28;20356;-77
2022/11/28 10:39:31;;;;;;;;;;;10.00;99.90;;;;;;5098018;28;19908;-75
2022/11/28 10:42:12;;;;;;;;;;;10.00;99.90;;;;;;5097329;28;19908;-77
2022/11/28 10:44:47;;;;;;;;;;;9.90;99.90;;;;;;5097623;28;20354;-77
2022/11/28 10:47:18;;;;;;;;;;;10.00;99.90;;;;;;5076591;28;19913;-79
2022/11/28 10:49:52;;;;;;;;;;;10.40;99.90;;;;;;5077199;28;20412;-78
2022/11/28 10:52:56;;;;;;;;;;;10.80;99.90;;;;;;5076467;28;19927;-79
2022/11/28 10:55:33;;;;;;;;;;;11.20;99.90;;;;;;5013100;28;19922;-78
2022/11/28 10:58:04;;;;;;;;;;;11.50;99.90;;;;;;5015202;28;20319;-81
2022/11/28 11:00:29;;;;;;;;;;;11.60;99.90;;;;;;5051213;28;19935;-76
2022/11/28 11:02:56;;;;;;;;;;;11.60;99.90;;;;;;5076932;28;19908;-84
2022/11/28 11:05:32;;;;;;;;;;;11.50;99.90;;;;;;5078754;28;19959;-80
2022/11/28 11:08:01;;;;;;;;;;;11.40;99.90;;;;;;5095724;28;19962;-78
2022/11/28 11:10:53;;;;;;;;;;;11.30;99.90;;;;;;5096760;28;20285;-76
2022/11/28 11:13:22;;;;;;;;;;;11.30;99.90;;;;;;5089619;28;19912;-78
2022/11/28 11:15:49;;;;;;;;;;;11.20;99.90;;;;;;5094982;28;19935;-77
2022/11/28 11:18:22;;;;;;;;;;;11.20;99.90;;;;;;5088552;28;19924;-73
2022/11/28 11:20:48;;;;;;;;;;;11.20;99.90;;;;;;5076532;28;19908;-77
2022/11/28 11:23:18;;;;;;;;;;;11.10;99.90;;;;;;5076356;28;19920;-75
2022/11/28 11:25:48;;;;;;;;;;;11.10;99.90;;;;;;5083861;28;19913;-75
2022/11/28 11:28:31;;;;;;;;;;;11.10;99.90;;;;;;5077640;28;20393;-74
2022/11/28 11:31:00;;;;;;;;;;;11.10;99.90;;;;;;5076500;28;19908;-74
2022/11/28 11:33:31;;;;;;;;;;;11.00;99.90;;;;;;5075272;28;19963;-74
2022/11/28 11:35:56;;;;;;;;;;;11.00;99.90;;;;;;5076298;28;19915;-73
2022/11/28 11:38:22;;;;;;;;;;;11.10;99.90;;;;;;5075896;28;19916;-73
2022/11/28 11:40:48;;;;;;;;;;;11.10;99.90;;;;;;5075871;28;19908;-73
2022/11/28 11:43:30;;;;;;;;;;;11.10;99.90;;;;;;5057714;28;19913;-75
2022/11/28 11:46:08;;;;;;;;;;;11.10;99.90;;;;;;5075201;28;20001;-74
2022/11/28 11:48:43;;;;;;;;;;;11.10;99.90;;;;;;5075763;28;19998;-74
2022/11/28 11:51:28;;;;;;;;;;;11.10;99.90;;;;;;5057466;28;20389;-75
2022/11/28 11:54:04;;;;;;;;;;;11.20;99.90;;;;;;5075507;28;20409;-73
2022/11/28 11:56:33;;;;;;;;;;;11.30;99.90;;;;;;5075923;28;20366;-73
2022/11/28 11:59:00;;;;;;;;;;;11.30;99.90;;;;;;5057574;28;19912;-72
2022/11/28 12:01:26;;;;;;;;;;;11.30;99.90;;;;;;5057265;28;19908;-74
2022/11/28 12:03:53;;;;;;;;;;;11.30;99.90;;;;;;5075863;28;20281;-71
2022/11/28 12:06:22;;;;;;;;;;;11.50;99.90;;;;;;5075491;28;19940;-75
2022/11/28 12:09:00;;;;;;;;;;;11.50;99.90;;;;;;5075497;28;20352;-73
2022/11/28 12:11:28;;;;;;;;;;;11.50;99.90;;;;;;5075919;28;19908;-73
2022/11/28 12:13:55;;;;;;;;;;;11.60;99.90;;;;;;5057265;28;19958;-73
2022/11/28 12:16:45;;;;;;;;;;;11.50;99.90;;;;;;5075306;28;20350;-72
2022/11/28 12:19:10;;;;;;;;;;;11.50;99.90;;;;;;5056868;28;20283;-73
2022/11/28 12:21:44;;;;;;;;;;;11.70;99.90;;;;;;5075219;28;19983;-71
2022/11/28 12:24:12;;;;;;;;;;;11.70;99.90;;;;;;5075588;28;19908;-74
2022/11/28 12:26:43;;;;;;;;;;;11.70;99.90;;;;;;5074944;28;19959;-73
2022/11/28 12:29:09;;;;;;;;;;;11.80;99.90;;;;;;5075484;28;19909;-74
2022/11/28 12:31:42;;;;;;;;;;;11.80;99.90;;;;;;5074871;28;19915;-73
2022/11/28 12:34:20;;;;;;;;;;;11.70;99.90;;;;;;5075453;28;20351;-76
2022/11/28 12:37:06;;;;;;;;;;;11.70;99.90;;;;;;5075112;28;19995;-75
2022/11/28 12:39:50;;;;;;;;;;;11.70;99.90;;;;;;5075043;28;19920;-73
2022/11/28 12:42:28;;;;;;;;;;;11.60;99.90;;;;;;5075021;28;19908;-72
2022/11/28 12:45:03;;;;;;;;;;;11.60;99.90;;;;;;5074692;28;19915;-73
2022/11/28 12:47:40;;;;;;;;;;;11.60;99.90;;;;;;5074941;28;20420;-74
2022/11/28 12:50:25;;;;;;;;;;;11.60;99.90;;;;;;5074605;28;19909;-73
2022/11/28 12:52:53;;;;;;;;;;;11.60;99.90;;;;;;5074392;28;19978;-74
2022/11/28 12:55:18;;;;;;;;;;;11.70;99.90;;;;;;5074743;28;20382;-73
2022/11/28 12:57:48;;;;;;;;;;;11.70;99.90;;;;;;5073429;28;19943;-72
2022/11/28 13:00:17;;;;;;;;;;;11.70;99.90;;;;;;5056419;28;19909;-74
2022/11/28 13:02:59;;;;;;;;;;;11.70;99.90;;;;;;5074567;28;19944;-72
2022/11/28 13:05:31;;;;;;;;;;;11.70;99.90;;;;;;5074616;28;20273;-75
2022/11/28 13:08:15;;;;;;;;;;;11.80;99.90;;;;;;5074316;28;19915;-73
2022/11/28 13:10:44;;;;;;;;;;;11.80;99.90;;;;;;5073738;28;19908;-74
2022/11/28 13:13:12;;;;;;;;;;;11.80;99.90;;;;;;5073173;28;20000;-74
2022/11/28 13:15:56;;;;;;;;;;;11.80;99.90;;;;;;5087788;28;19987;-75
2022/11/28 13:18:33;;;;;;;;;;;11.90;99.90;;;;;;5074026;28;20078;-76
2022/11/28 13:21:09;;;;;;;;;;;12.00;99.90;;;;;;5077321;28;20011;-77
2022/11/28 13:23:34;;;;;;;;;;;12.00;99.90;;;;;;5075980;28;20393;-78
2022/11/28 13:26:00;;;;;;;;;;;12.10;99.90;;;;;;5073430;28;19944;-78
2022/11/28 13:28:32;;;;;;;;;;;12.20;99.90;;;;;;5088315;28;19912;-77
2022/11/28 13:31:01;;;;;;;;;;;12.30;99.90;;;;;;5075681;28;19920;-78
2022/11/28 13:33:33;;;;;;;;;;;12.20;99.90;;;;;;5094489;28;19954;-78
2022/11/28 13:35:59;;;;;;;;;;;12.30;99.90;;;;;;5082893;28;19908;-77
2022/11/28 13:38:31;;;;;;;;;;;12.40;99.90;;;;;;5076821;28;19916;-77
2022/11/28 13:41:11;;;;;;;;;;;12.50;99.90;;;;;;5092472;28;19912;-77
2022/11/28 13:43:36;;;;;;;;;;;12.40;99.90;;;;;;5055676;28;19916;-77
2022/11/28 13:46:02;;;;;;;;;;;12.30;99.90;;;;;;5088856;28;19916;-76
2022/11/28 13:48:33;;;;;;;;;;;12.30;99.90;;;;;;5094267;28;19908;-78
2022/11/28 13:50:59;;;;;;;;;;;12.20;99.90;;;;;;5093886;28;19909;-80
2022/11/28 13:53:25;;;;;;;;;;;11.90;99.90;;;;;;5094394;28;20061;-80
2022/11/28 13:55:51;;;;;;;;;;;11.60;99.90;;;;;;5092443;28;19921;-78
2022/11/28 13:58:17;;;;;;;;;;;11.40;99.90;;;;;;5093670;28;19916;-79
2022/11/28 14:00:57;;;;;;;;;;;11.30;99.90;;;;;;5092288;28;19918;-80
2022/11/28 14:03:22;;;;;;;;;;;11.20;99.90;;;;;;5066250;28;19920;-79
2022/11/28 14:05:53;;;;;;;;;;;11.10;99.90;;;;;;5093424;28;19908;-80
2022/11/28 14:08:45;;;;;;;;;;;11.00;99.90;;;;;;5082831;28;20387;-82
2022/11/28 14:11:29;;;;;;;;;;;11.00;99.90;;;;;;5079918;28;19908;-78
2022/11/28 14:14:13;;;;;;;;;;;11.10;99.90;;;;;;5060207;28;19908;-77
2022/11/28 14:16:47;;;;;;;;;;;11.10;99.90;;;;;;5077922;28;20432;-80
2022/11/28 14:19:31;;;;;;;;;;;11.20;99.90;;;;;;5077262;28;20370;-79
2022/11/28 14:21:56;;;;;;;;;;;11.30;99.90;;;;;;5077856;28;20012;-78
2022/11/28 14:24:39;;;;;;;;;;;11.10;99.90;;;;;;5077718;28;20025;-79
2022/11/28 14:27:05;;;;;;;;;;;11.10;99.90;;;;;;5080111;28;20386;-79
2022/11/28 14:29:38;;;;;;;;;;;11.00;99.90;;;;;;5081392;28;19918;-78
2022/11/28 14:32:04;;;;;;;;;;;10.90;99.90;;;;;;5077150;28;19992;-77
2022/11/28 14:34:41;;;;;;;;;;;10.90;99.90;;;;;;5080316;28;19908;-78
2022/11/28 14:37:34;;;;;;;;;;;10.90;99.90;;;;;;5097400;28;19908;-77
2022/11/28 14:39:59;;;;;;;;;;;11.00;99.90;;;;;;5058713;28;19908;-78